sensor_id;sensor_type;location;lat;lon;timestamp;pressure;altitude;pressure_sealevel;temperature;humidity
59043;BME280;44826;51.596;5.624;2023-07-02T00:02:23;100604.84;;;16.94;77.81
59043;BME280;44826;51.596;5.624;2023-07-02T00:04:49;100608.41;;;16.93;77.61
59043;BME280;44826;51.596;5.624;2023-07-02T00:07:14;100605.06;;;16.91;78.18
59043;BME280;44826;51.596;5.624;2023-07-02T00:09:40;100597.22;;;16.89;78.11
59043;BME280;44826;51.596;5.624;2023-07-02T00:12:05;100601.66;;;16.89;77.90
59043;BME280;44826;51.596;5.624;2023-07-02T00:14:31;100596.56;;;16.86;77.79
59043;BME280;44826;51.596;5.624;2023-07-02T00:16:56;100603.53;;;16.87;77.88
59043;BME280;44826;51.596;5.624;2023-07-02T00:19:21;100600.13;;;16.84;77.74
59043;BME280;44826;51.596;5.624;2023-07-02T00:21:47;100601.06;;;16.83;78.21
59043;BME280;44826;51.596;5.624;2023-07-02T00:24:13;100595.03;;;16.81;78.03
59043;BME280;44826;51.596;5.624;2023-07-02T00:26:38;100581.13;;;16.79;77.81
59043;BME280;44826;51.596;5.624;2023-07-02T00:29:05;100572.50;;;16.77;77.87
59043;BME280;44826;51.596;5.624;2023-07-02T00:31:31;100555.22;;;16.73;77.92
59043;BME280;44826;51.596;5.624;2023-07-02T00:33:57;100543.19;;;16.69;77.90
59043;BME280;44826;51.596;5.624;2023-07-02T00:36:22;100564.47;;;16.64;77.43
59043;BME280;44826;51.596;5.624;2023-07-02T00:38:48;100586.47;;;16.62;77.84
59043;BME280;44826;51.596;5.624;2023-07-02T00:41:14;100592.66;;;16.61;77.84
59043;BME280;44826;51.596;5.624;2023-07-02T00:43:39;100597.91;;;16.61;77.67
59043;BME280;44826;51.596;5.624;2023-07-02T00:46:13;100597.91;;;16.61;77.70
59043;BME280;44826;51.596;5.624;2023-07-02T00:48:43;100608.34;;;16.62;77.61
59043;BME280;44826;51.596;5.624;2023-07-02T00:51:09;100614.44;;;16.63;77.45
59043;BME280;44826;51.596;5.624;2023-07-02T00:53:34;100610.13;;;16.62;77.43
59043;BME280;44826;51.596;5.624;2023-07-02T00:56:00;100615.53;;;16.59;77.40
59043;BME280;44826;51.596;5.624;2023-07-02T00:58:25;100623.41;;;16.59;77.41
59043;BME280;44826;51.596;5.624;2023-07-02T01:00:50;100619.09;;;16.58;77.41
59043;BME280;44826;51.596;5.624;2023-07-02T01:03:16;100623.50;;;16.57;77.36
59043;BME280;44826;51.596;5.624;2023-07-02T01:05:41;100624.34;;;16.58;77.42
59043;BME280;44826;51.596;5.624;2023-07-02T01:08:07;100619.19;;;16.56;77.37
59043;BME280;44826;51.596;5.624;2023-07-02T01:10:33;100627.94;;;16.57;77.64
59043;BME280;44826;51.596;5.624;2023-07-02T01:13:04;100620.13;;;16.55;77.42
59043;BME280;44826;51.596;5.624;2023-07-02T01:15:31;100626.22;;;16.56;77.41
59043;BME280;44826;51.596;5.624;2023-07-02T01:17:57;100621.91;;;16.54;77.35
59043;BME280;44826;51.596;5.624;2023-07-02T01:20:23;100625.47;;;16.53;77.33
59043;BME280;44826;51.596;5.624;2023-07-02T01:22:50;100633.34;;;16.53;77.16
59043;BME280;44826;51.596;5.624;2023-07-02T01:25:17;100628.16;;;16.52;77.48
59043;BME280;44826;51.596;5.624;2023-07-02T01:27:43;100624.69;;;16.51;77.65
59043;BME280;44826;51.596;5.624;2023-07-02T01:30:08;100631.72;;;16.51;77.40
59043;BME280;44826;51.596;5.624;2023-07-02T01:32:34;100626.56;;;16.49;77.74
59043;BME280;44826;51.596;5.624;2023-07-02T01:35:00;100635.25;;;16.50;77.39
59043;BME280;44826;51.596;5.624;2023-07-02T01:37:26;100628.41;;;16.47;77.53
59043;BME280;44826;51.596;5.624;2023-07-02T01:39:51;100632.91;;;16.45;77.58
59043;BME280;44826;51.596;5.624;2023-07-02T01:42:20;100636.53;;;16.43;77.74
59043;BME280;44826;51.596;5.624;2023-07-02T01:44:48;100638.41;;;16.41;77.79
59043;BME280;44826;51.596;5.624;2023-07-02T01:47:16;100642.78;;;16.40;78.20
59043;BME280;44826;51.596;5.624;2023-07-02T01:49:41;100636.81;;;16.38;78.12
59043;BME280;44826;51.596;5.624;2023-07-02T01:52:07;100653.47;;;16.37;78.18
59043;BME280;44826;51.596;5.624;2023-07-02T01:54:33;100646.53;;;16.36;78.49
59043;BME280;44826;51.596;5.624;2023-07-02T01:56:58;100639.59;;;16.35;78.40
59043;BME280;44826;51.596;5.624;2023-07-02T01:59:25;100642.28;;;16.33;78.55
59043;BME280;44826;51.596;5.624;2023-07-02T02:01:50;100644.13;;;16.31;78.74
59043;BME280;44826;51.596;5.624;2023-07-02T02:04:16;100645.91;;;16.31;78.93
59043;BME280;44826;51.596;5.624;2023-07-02T02:06:41;100646.00;;;16.29;79.12
59043;BME280;44826;51.596;5.624;2023-07-02T02:09:07;100645.31;;;16.26;79.29
59043;BME280;44826;51.596;5.624;2023-07-02T02:11:36;100644.47;;;16.25;79.21
59043;BME280;44826;51.596;5.624;2023-07-02T02:14:02;100648.84;;;16.24;79.27
59043;BME280;44826;51.596;5.624;2023-07-02T02:16:27;100641.91;;;16.23;79.31
59043;BME280;44826;51.596;5.624;2023-07-02T02:18:53;100645.31;;;16.26;79.20
59043;BME280;44826;51.596;5.624;2023-07-02T02:21:19;100650.56;;;16.26;79.54
59043;BME280;44826;51.596;5.624;2023-07-02T02:23:44;100648.84;;;16.24;79.37
59043;BME280;44826;51.596;5.624;2023-07-02T02:26:10;100645.50;;;16.22;79.53
59043;BME280;44826;51.596;5.624;2023-07-02T02:28:35;100652.59;;;16.20;79.50
59043;BME280;44826;51.596;5.624;2023-07-02T02:31:01;100651.88;;;16.17;79.57
59043;BME280;44826;51.596;5.624;2023-07-02T02:33:26;100651.97;;;16.15;79.45
59043;BME280;44826;51.596;5.624;2023-07-02T02:35:51;100651.22;;;16.13;79.90
59043;BME280;44826;51.596;5.624;2023-07-02T02:38:16;100661.03;;;16.10;79.74
59043;BME280;44826;51.596;5.624;2023-07-02T02:40:42;100658.47;;;16.08;79.87
59043;BME280;44826;51.596;5.624;2023-07-02T02:43:07;100657.69;;;16.06;79.74
59043;BME280;44826;51.596;5.624;2023-07-02T02:45:32;100655.25;;;16.03;80.03
59043;BME280;44826;51.596;5.624;2023-07-02T02:47:58;100657.94;;;16.01;80.07
59043;BME280;44826;51.596;5.624;2023-07-02T02:50:23;100667.66;;;15.99;80.04
59043;BME280;44826;51.596;5.624;2023-07-02T02:52:48;100673.91;;;15.97;80.23
59043;BME280;44826;51.596;5.624;2023-07-02T02:55:13;100672.31;;;15.94;80.21
59043;BME280;44826;51.596;5.624;2023-07-02T02:57:39;100676.78;;;15.92;80.32
59043;BME280;44826;51.596;5.624;2023-07-02T03:00:05;100682.03;;;15.92;80.40
59043;BME280;44826;51.596;5.624;2023-07-02T03:02:31;100676.00;;;15.90;80.48
59043;BME280;44826;51.596;5.624;2023-07-02T03:04:56;100678.72;;;15.88;80.84
59043;BME280;44826;51.596;5.624;2023-07-02T03:07:22;100688.34;;;15.88;80.69
59043;BME280;44826;51.596;5.624;2023-07-02T03:09:47;100678.88;;;15.85;80.79
59043;BME280;44826;51.596;5.624;2023-07-02T03:12:12;100691.19;;;15.83;80.66
59043;BME280;44826;51.596;5.624;2023-07-02T03:14:38;100693.88;;;15.82;81.12
59043;BME280;44826;51.596;5.624;2023-07-02T03:17:03;100694.03;;;15.78;81.07
59043;BME280;44826;51.596;5.624;2023-07-02T03:19:29;100690.66;;;15.76;81.13
59043;BME280;44826;51.596;5.624;2023-07-02T03:21:54;100692.56;;;15.73;81.22
59043;BME280;44826;51.596;5.624;2023-07-02T03:24:19;100704.84;;;15.72;81.43
59043;BME280;44826;51.596;5.624;2023-07-02T03:26:45;100701.44;;;15.70;81.48
59043;BME280;44826;51.596;5.624;2023-07-02T03:29:10;100702.44;;;15.68;81.53
59043;BME280;44826;51.596;5.624;2023-07-02T03:31:36;100702.44;;;15.68;81.26
59043;BME280;44826;51.596;5.624;2023-07-02T03:34:06;100708.63;;;15.67;81.36
59043;BME280;44826;51.596;5.624;2023-07-02T03:36:31;100708.66;;;15.65;80.93
59043;BME280;44826;51.596;5.624;2023-07-02T03:38:57;100713.13;;;15.63;80.49
59043;BME280;44826;51.596;5.624;2023-07-02T03:41:22;100715.06;;;15.59;80.01
59043;BME280;44826;51.596;5.624;2023-07-02T03:43:47;100716.91;;;15.57;80.15
59043;BME280;44826;51.596;5.624;2023-07-02T03:46:13;100715.31;;;15.55;79.68
59043;BME280;44826;51.596;5.624;2023-07-02T03:48:39;100717.06;;;15.54;80.18
59043;BME280;44826;51.596;5.624;2023-07-02T03:51:04;100725.88;;;15.53;79.94
59043;BME280;44826;51.596;5.624;2023-07-02T03:53:29;100724.19;;;15.52;79.88
59043;BME280;44826;51.596;5.624;2023-07-02T03:55:54;100728.56;;;15.52;80.24
59043;BME280;44826;51.596;5.624;2023-07-02T03:58:20;100726.84;;;15.51;80.11
59043;BME280;44826;51.596;5.624;2023-07-02T04:00:45;100726.94;;;15.49;80.11
59043;BME280;44826;51.596;5.624;2023-07-02T04:03:10;100741.75;;;15.50;80.01
59043;BME280;44826;51.596;5.624;2023-07-02T04:05:36;100735.72;;;15.48;79.79
59043;BME280;44826;51.596;5.624;2023-07-02T04:08:01;100733.09;;;15.48;80.11
59043;BME280;44826;51.596;5.624;2023-07-02T04:10:26;100729.56;;;15.49;80.27
59043;BME280;44826;51.596;5.624;2023-07-02T04:12:51;100729.63;;;15.47;80.63
59043;BME280;44826;51.596;5.624;2023-07-02T04:15:17;100740.19;;;15.46;80.31
59043;BME280;44826;51.596;5.624;2023-07-02T04:17:42;100734.13;;;15.45;80.34
59043;BME280;44826;51.596;5.624;2023-07-02T04:20:08;100738.50;;;15.45;80.41
59043;BME280;44826;51.596;5.624;2023-07-02T04:22:33;100742.03;;;15.44;80.34
59043;BME280;44826;51.596;5.624;2023-07-02T04:24:58;100737.72;;;15.43;80.39
59043;BME280;44826;51.596;5.624;2023-07-02T04:27:24;100738.72;;;15.40;80.06
59043;BME280;44826;51.596;5.624;2023-07-02T04:29:49;100743.19;;;15.38;79.82
59043;BME280;44826;51.596;5.624;2023-07-02T04:32:14;100749.25;;;15.39;80.26
59043;BME280;44826;51.596;5.624;2023-07-02T04:34:40;100751.81;;;15.40;79.83
59043;BME280;44826;51.596;5.624;2023-07-02T04:37:06;100754.50;;;15.39;79.70
59043;BME280;44826;51.596;5.624;2023-07-02T04:39:31;100752.81;;;15.38;79.31
59043;BME280;44826;51.596;5.624;2023-07-02T04:41:57;100755.28;;;15.41;79.03
59043;BME280;44826;51.596;5.624;2023-07-02T04:44:22;100759.59;;;15.42;78.30
59043;BME280;44826;51.596;5.624;2023-07-02T04:47:01;100759.47;;;15.45;78.43
59043;BME280;44826;51.596;5.624;2023-07-02T04:49:27;100763.78;;;15.46;77.67
59043;BME280;44826;51.596;5.624;2023-07-02T04:51:53;100770.72;;;15.47;77.37
59043;BME280;44826;51.596;5.624;2023-07-02T04:54:22;100778.59;;;15.47;76.04
59043;BME280;44826;51.596;5.624;2023-07-02T04:56:47;100775.88;;;15.48;75.80
59043;BME280;44826;51.596;5.624;2023-07-02T04:59:13;100767.03;;;15.51;75.24
59043;BME280;44826;51.596;5.624;2023-07-02T05:01:39;100766.97;;;15.53;74.62
59043;BME280;44826;51.596;5.624;2023-07-02T05:04:05;100774.59;;;15.57;75.19
59043;BME280;44826;51.596;5.624;2023-07-02T05:06:30;100775.25;;;15.62;74.03
59043;BME280;44826;51.596;5.624;2023-07-02T05:08:56;100778.56;;;15.66;73.08
59043;BME280;44826;51.596;5.624;2023-07-02T05:11:21;100781.13;;;15.68;71.84
59043;BME280;44826;51.596;5.624;2023-07-02T05:13:46;100777.50;;;15.70;71.42
59043;BME280;44826;51.596;5.624;2023-07-02T05:16:12;100788.75;;;15.72;71.10
59043;BME280;44826;51.596;5.624;2023-07-02T05:18:37;100785.13;;;15.75;70.45
59043;BME280;44826;51.596;5.624;2023-07-02T05:21:02;100794.69;;;15.76;68.51
59043;BME280;44826;51.596;5.624;2023-07-02T05:23:27;100787.69;;;15.76;68.56
59043;BME280;44826;51.596;5.624;2023-07-02T05:25:53;100792.84;;;15.78;67.89
59043;BME280;44826;51.596;5.624;2023-07-02T05:28:18;100789.22;;;15.81;68.39
59043;BME280;44826;51.596;5.624;2023-07-02T05:30:43;100790.88;;;15.83;67.33
59043;BME280;44826;51.596;5.624;2023-07-02T05:33:09;100791.69;;;15.85;67.98
59043;BME280;44826;51.596;5.624;2023-07-02T05:35:34;100812.56;;;15.87;67.83
59043;BME280;44826;51.596;5.624;2023-07-02T05:37:59;100808.09;;;15.89;67.23
59043;BME280;44826;51.596;5.624;2023-07-02T05:40:25;100817.53;;;15.93;66.81
59043;BME280;44826;51.596;5.624;2023-07-02T05:42:50;100819.94;;;15.98;66.40
59043;BME280;44826;51.596;5.624;2023-07-02T05:45:15;100816.25;;;16.02;66.83
59043;BME280;44826;51.596;5.624;2023-07-02T05:47:41;100821.34;;;16.05;67.23
59043;BME280;44826;51.596;5.624;2023-07-02T05:50:08;100824.56;;;16.10;67.23
59043;BME280;44826;51.596;5.624;2023-07-02T05:52:33;100819.09;;;16.15;66.79
59043;BME280;44826;51.596;5.624;2023-07-02T05:54:59;100822.44;;;16.18;66.34
59043;BME280;44826;51.596;5.624;2023-07-02T05:57:24;100826.66;;;16.21;66.74
59043;BME280;44826;51.596;5.624;2023-07-02T05:59:49;100824.72;;;16.24;66.22
59043;BME280;44826;51.596;5.624;2023-07-02T06:02:14;100827.22;;;16.28;66.15
59043;BME280;44826;51.596;5.624;2023-07-02T06:04:40;100828.75;;;16.32;66.04
59043;BME280;44826;51.596;5.624;2023-07-02T06:07:05;100830.47;;;16.33;65.95
59043;BME280;44826;51.596;5.624;2023-07-02T06:09:30;100836.53;;;16.33;64.70
59043;BME280;44826;51.596;5.624;2023-07-02T06:11:57;100832.16;;;16.34;64.62
59043;BME280;44826;51.596;5.624;2023-07-02T06:14:23;100835.63;;;16.34;65.86
59043;BME280;44826;51.596;5.624;2023-07-02T06:16:51;100849.63;;;16.35;64.37
59043;BME280;44826;51.596;5.624;2023-07-02T06:19:16;100841.97;;;16.30;64.94
59043;BME280;44826;51.596;5.624;2023-07-02T06:21:41;100844.50;;;16.32;65.03
59043;BME280;44826;51.596;5.624;2023-07-02T06:24:06;100853.22;;;16.32;64.68
59043;BME280;44826;51.596;5.624;2023-07-02T06:26:32;100853.16;;;16.34;64.41
59043;BME280;44826;51.596;5.624;2023-07-02T06:28:57;100860.91;;;16.37;64.67
59043;BME280;44826;51.596;5.624;2023-07-02T06:31:23;100859.78;;;16.41;64.34
59043;BME280;44826;51.596;5.624;2023-07-02T06:33:48;100852.53;;;16.46;64.77
59043;BME280;44826;51.596;5.624;2023-07-02T06:36:14;100871.41;;;16.54;63.17
59043;BME280;44826;51.596;5.624;2023-07-02T06:38:40;100859.78;;;16.59;63.45
59043;BME280;44826;51.596;5.624;2023-07-02T06:41:05;100862.94;;;16.65;63.62
59043;BME280;44826;51.596;5.624;2023-07-02T06:43:30;100856.72;;;16.68;63.18
59043;BME280;44826;51.596;5.624;2023-07-02T06:45:55;100869.59;;;16.73;63.69
59043;BME280;44826;51.596;5.624;2023-07-02T06:48:21;100865.91;;;16.77;62.30
59043;BME280;44826;51.596;5.624;2023-07-02T06:50:47;100871.84;;;16.80;62.68
59043;BME280;44826;51.596;5.624;2023-07-02T06:53:12;100873.38;;;16.84;63.01
59043;BME280;44826;51.596;5.624;2023-07-02T06:55:37;100876.78;;;16.87;62.41
59043;BME280;44826;51.596;5.624;2023-07-02T06:58:04;100880.00;;;16.92;63.26
59043;BME280;44826;51.596;5.624;2023-07-02T07:00:33;100888.66;;;16.94;62.86
59043;BME280;44826;51.596;5.624;2023-07-02T07:03:02;100892.03;;;16.97;62.00
59043;BME280;44826;51.596;5.624;2023-07-02T07:05:28;100884.81;;;17.01;61.86
59043;BME280;44826;51.596;5.624;2023-07-02T07:07:54;100895.09;;;17.06;61.74
59043;BME280;44826;51.596;5.624;2023-07-02T07:10:19;100887.88;;;17.09;61.38
59043;BME280;44826;51.596;5.624;2023-07-02T07:12:45;100893.00;;;17.12;59.71
59043;BME280;44826;51.596;5.624;2023-07-02T07:15:10;100898.19;;;17.14;60.14
59043;BME280;44826;51.596;5.624;2023-07-02T07:17:36;100898.00;;;17.17;61.09
59043;BME280;44826;51.596;5.624;2023-07-02T07:20:01;100897.78;;;17.22;60.12
59043;BME280;44826;51.596;5.624;2023-07-02T07:22:29;100906.25;;;17.27;59.33
59043;BME280;44826;51.596;5.624;2023-07-02T07:24:55;100911.34;;;17.30;57.79
59043;BME280;44826;51.596;5.624;2023-07-02T07:27:20;100906.72;;;17.35;59.11
59043;BME280;44826;51.596;5.624;2023-07-02T07:29:45;100907.31;;;17.40;58.33
59043;BME280;44826;51.596;5.624;2023-07-02T07:32:10;100918.34;;;17.47;58.96
59043;BME280;44826;51.596;5.624;2023-07-02T07:34:36;100917.34;;;17.50;57.52
59043;BME280;44826;51.596;5.624;2023-07-02T07:37:01;100919.03;;;17.51;58.42
59043;BME280;44826;51.596;5.624;2023-07-02T07:39:26;100922.44;;;17.53;57.90
59043;BME280;44826;51.596;5.624;2023-07-02T07:41:52;100936.34;;;17.55;57.64
59043;BME280;44826;51.596;5.624;2023-07-02T07:44:17;100928.47;;;17.55;58.08
59043;BME280;44826;51.596;5.624;2023-07-02T07:46:42;100921.25;;;17.58;57.16
59043;BME280;44826;51.596;5.624;2023-07-02T07:49:07;100924.66;;;17.60;58.21
59043;BME280;44826;51.596;5.624;2023-07-02T07:51:33;100930.59;;;17.64;56.62
59043;BME280;44826;51.596;5.624;2023-07-02T07:54:00;100924.38;;;17.65;57.47
59043;BME280;44826;51.596;5.624;2023-07-02T07:56:26;100947.25;;;17.65;56.11
59043;BME280;44826;51.596;5.624;2023-07-02T07:58:51;100942.38;;;17.57;56.09
59043;BME280;44826;51.596;5.624;2023-07-02T08:01:16;100946.00;;;17.54;55.40
59043;BME280;44826;51.596;5.624;2023-07-02T08:03:41;100934.81;;;17.51;55.05
59043;BME280;44826;51.596;5.624;2023-07-02T08:06:07;100943.63;;;17.50;56.45
59043;BME280;44826;51.596;5.624;2023-07-02T08:08:32;100939.25;;;17.50;57.14
59043;BME280;44826;51.596;5.624;2023-07-02T08:10:57;100946.16;;;17.51;56.22
59043;BME280;44826;51.596;5.624;2023-07-02T08:13:26;100944.50;;;17.50;54.32
59043;BME280;44826;51.596;5.624;2023-07-02T08:15:51;100948.91;;;17.50;56.59
59043;BME280;44826;51.596;5.624;2023-07-02T08:18:16;100952.13;;;17.55;56.25
59043;BME280;44826;51.596;5.624;2023-07-02T08:20:41;100958.16;;;17.57;54.98
59043;BME280;44826;51.596;5.624;2023-07-02T08:23:07;100961.16;;;17.67;53.24
59043;BME280;44826;51.596;5.624;2023-07-02T08:25:32;100953.00;;;17.71;52.25
59043;BME280;44826;51.596;5.624;2023-07-02T08:27:57;100956.41;;;17.73;51.95
59043;BME280;44826;51.596;5.624;2023-07-02T08:30:23;100962.66;;;17.71;51.85
59043;BME280;44826;51.596;5.624;2023-07-02T08:32:48;100955.03;;;17.66;50.67
59043;BME280;44826;51.596;5.624;2023-07-02T08:35:14;100971.91;;;17.62;49.40
59043;BME280;44826;51.596;5.624;2023-07-02T08:37:39;100969.47;;;17.59;51.19
59043;BME280;44826;51.596;5.624;2023-07-02T08:40:05;100969.47;;;17.59;51.84
59043;BME280;44826;51.596;5.624;2023-07-02T08:42:32;100980.00;;;17.59;51.89
59043;BME280;44826;51.596;5.624;2023-07-02T08:44:59;100970.81;;;17.66;50.82
59043;BME280;44826;51.596;5.624;2023-07-02T08:47:25;100979.47;;;17.68;51.72
59043;BME280;44826;51.596;5.624;2023-07-02T08:49:51;100974.22;;;17.68;52.49
59043;BME280;44826;51.596;5.624;2023-07-02T08:52:16;100980.00;;;17.75;53.19
59043;BME280;44826;51.596;5.624;2023-07-02T08:54:41;100976.69;;;17.87;52.15
59043;BME280;44826;51.596;5.624;2023-07-02T08:57:09;100967.88;;;17.88;51.60
59043;BME280;44826;51.596;5.624;2023-07-02T08:59:36;100971.38;;;17.89;51.85
59043;BME280;44826;51.596;5.624;2023-07-02T09:02:01;100974.94;;;17.88;52.20
59043;BME280;44826;51.596;5.624;2023-07-02T09:04:26;100976.47;;;17.92;51.42
59043;BME280;44826;51.596;5.624;2023-07-02T09:07:07;100976.81;;;18.02;52.65
59043;BME280;44826;51.596;5.624;2023-07-02T09:09:34;100970.72;;;18.01;49.36
59043;BME280;44826;51.596;5.624;2023-07-02T09:12:09;100972.72;;;17.96;50.68
59043;BME280;44826;51.596;5.624;2023-07-02T09:14:34;100980.88;;;17.92;49.47
59043;BME280;44826;51.596;5.624;2023-07-02T09:17:06;100978.16;;;17.93;50.37
59043;BME280;44826;51.596;5.624;2023-07-02T09:19:34;100971.56;;;18.02;50.41
59043;BME280;44826;51.596;5.624;2023-07-02T09:22:00;100976.00;;;18.17;52.22
59043;BME280;44826;51.596;5.624;2023-07-02T09:24:29;100966.53;;;18.29;50.70
59043;BME280;44826;51.596;5.624;2023-07-02T09:26:57;100973.25;;;18.35;51.46
59043;BME280;44826;51.596;5.624;2023-07-02T09:29:29;100977.16;;;18.44;51.38
59043;BME280;44826;51.596;5.624;2023-07-02T09:31:58;100968.28;;;18.45;49.63
59043;BME280;44826;51.596;5.624;2023-07-02T09:34:31;100971.69;;;18.47;52.74
59043;BME280;44826;51.596;5.624;2023-07-02T09:36:58;100972.56;;;18.47;51.93
59043;BME280;44826;51.596;5.624;2023-07-02T09:39:28;100970.00;;;18.46;52.10
59043;BME280;44826;51.596;5.624;2023-07-02T09:41:59;100961.53;;;18.41;51.55
59043;BME280;44826;51.596;5.624;2023-07-02T09:44:28;100961.59;;;18.39;52.00
59043;BME280;44826;51.596;5.624;2023-07-02T09:47:04;100963.03;;;18.45;53.06
59043;BME280;44826;51.596;5.624;2023-07-02T09:49:53;100965.25;;;18.53;51.65
59043;BME280;44826;51.596;5.624;2023-07-02T09:52:17;100964.81;;;18.60;52.16
59043;BME280;44826;51.596;5.624;2023-07-02T09:54:44;100965.63;;;18.61;49.97
59043;BME280;44826;51.596;5.624;2023-07-02T09:57:10;100963.19;;;18.58;51.38
59043;BME280;44826;51.596;5.624;2023-07-02T09:59:35;100963.88;;;18.61;51.11
59043;BME280;44826;51.596;5.624;2023-07-02T10:02:01;100969.72;;;18.66;51.00
59043;BME280;44826;51.596;5.624;2023-07-02T10:04:26;100967.22;;;18.79;52.17
59043;BME280;44826;51.596;5.624;2023-07-02T10:06:55;100972.69;;;18.91;51.15
59043;BME280;44826;51.596;5.624;2023-07-02T10:09:34;100977.75;;;18.95;51.68
59043;BME280;44826;51.596;5.624;2023-07-02T10:12:00;100981.31;;;18.94;50.72
59043;BME280;44826;51.596;5.624;2023-07-02T10:14:25;100994.50;;;18.94;50.17
59043;BME280;44826;51.596;5.624;2023-07-02T10:16:52;100995.06;;;19.00;49.74
59043;BME280;44826;51.596;5.624;2023-07-02T10:19:17;100999.41;;;19.01;50.59
59043;BME280;44826;51.596;5.624;2023-07-02T10:21:43;100995.06;;;19.00;49.90
59043;BME280;44826;51.596;5.624;2023-07-02T10:24:13;100990.97;;;18.94;49.75
59043;BME280;44826;51.596;5.624;2023-07-02T10:26:39;100987.84;;;18.87;49.90
59043;BME280;44826;51.596;5.624;2023-07-02T10:29:06;100993.28;;;18.84;50.11
59043;BME280;44826;51.596;5.624;2023-07-02T10:31:31;100994.34;;;18.81;50.66
59043;BME280;44826;51.596;5.624;2023-07-02T10:33:57;100995.63;;;18.74;50.05
59043;BME280;44826;51.596;5.624;2023-07-02T10:36:24;101007.53;;;18.65;50.60
59043;BME280;44826;51.596;5.624;2023-07-02T10:38:50;101002.13;;;18.53;51.27
59043;BME280;44826;51.596;5.624;2023-07-02T10:41:29;101001.72;;;18.44;52.38
59043;BME280;44826;51.596;5.624;2023-07-02T10:44:04;101011.63;;;18.39;51.77
59043;BME280;44826;51.596;5.624;2023-07-02T10:46:29;101013.59;;;18.35;51.47
59043;BME280;44826;51.596;5.624;2023-07-02T10:48:56;101019.81;;;18.34;51.81
59043;BME280;44826;51.596;5.624;2023-07-02T10:51:22;101022.72;;;18.30;51.39
59043;BME280;44826;51.596;5.624;2023-07-02T10:54:02;101026.53;;;18.24;52.25
59043;BME280;44826;51.596;5.624;2023-07-02T10:56:29;101020.81;;;18.16;51.96
59043;BME280;44826;51.596;5.624;2023-07-02T10:58:55;101016.75;;;18.10;52.07
59043;BME280;44826;51.596;5.624;2023-07-02T11:01:25;101009.63;;;18.12;53.93
59043;BME280;44826;51.596;5.624;2023-07-02T11:03:57;101007.22;;;18.24;52.38
59043;BME280;44826;51.596;5.624;2023-07-02T11:06:23;100999.06;;;18.28;53.96
59043;BME280;44826;51.596;5.624;2023-07-02T11:08:49;101010.97;;;18.35;52.21
59043;BME280;44826;51.596;5.624;2023-07-02T11:11:14;101013.34;;;18.40;51.41
59043;BME280;44826;51.596;5.624;2023-07-02T11:13:46;101005.19;;;18.45;52.12
59043;BME280;44826;51.596;5.624;2023-07-02T11:16:27;101013.25;;;18.58;52.96
59043;BME280;44826;51.596;5.624;2023-07-02T11:19:06;101016.03;;;18.71;52.78
59043;BME280;44826;51.596;5.624;2023-07-02T11:21:35;101020.97;;;18.77;52.29
59043;BME280;44826;51.596;5.624;2023-07-02T11:24:03;101021.63;;;18.80;51.75
59043;BME280;44826;51.596;5.624;2023-07-02T11:26:39;101020.59;;;18.83;52.10
59043;BME280;44826;51.596;5.624;2023-07-02T11:29:10;101023.16;;;18.85;52.68
59043;BME280;44826;51.596;5.624;2023-07-02T11:31:37;101022.00;;;18.89;52.19
59043;BME280;44826;51.596;5.624;2023-07-02T11:34:11;101020.41;;;18.86;52.71
59043;BME280;44826;51.596;5.624;2023-07-02T11:36:37;101021.94;;;18.90;51.38
59043;BME280;44826;51.596;5.624;2023-07-02T11:41:53;101017.34;;;18.94;51.55
59043;BME280;44826;51.596;5.624;2023-07-02T11:44:18;101014.81;;;18.92;51.84
59043;BME280;44826;51.596;5.624;2023-07-02T11:46:47;101012.97;;;18.94;52.60
59043;BME280;44826;51.596;5.624;2023-07-02T11:49:15;101013.63;;;18.98;51.01
59043;BME280;44826;51.596;5.624;2023-07-02T11:51:42;101011.38;;;19.06;52.49
59043;BME280;44826;51.596;5.624;2023-07-02T11:54:13;101003.28;;;19.09;51.05
59043;BME280;44826;51.596;5.624;2023-07-02T11:56:41;100999.03;;;19.07;50.71
59043;BME280;44826;51.596;5.624;2023-07-02T11:59:07;100996.13;;;19.11;51.18
59043;BME280;44826;51.596;5.624;2023-07-02T12:01:36;101005.19;;;19.22;51.19
59043;BME280;44826;51.596;5.624;2023-07-02T12:04:02;101005.47;;;19.32;50.31
59043;BME280;44826;51.596;5.624;2023-07-02T12:06:27;100999.47;;;19.44;50.49
59043;BME280;44826;51.596;5.624;2023-07-02T12:08:52;101008.69;;;19.51;48.43
59043;BME280;44826;51.596;5.624;2023-07-02T12:11:18;101005.69;;;19.58;49.85
59043;BME280;44826;51.596;5.624;2023-07-02T12:13:43;101011.63;;;19.61;49.12
59043;BME280;44826;51.596;5.624;2023-07-02T12:16:09;101018.91;;;19.58;48.92
59043;BME280;44826;51.596;5.624;2023-07-02T12:18:34;101021.72;;;19.54;49.19
59043;BME280;44826;51.596;5.624;2023-07-02T12:20:59;101018.31;;;19.52;49.11
59043;BME280;44826;51.596;5.624;2023-07-02T12:23:24;101018.50;;;19.49;49.57
59043;BME280;44826;51.596;5.624;2023-07-02T12:25:50;101012.28;;;19.50;51.69
59043;BME280;44826;51.596;5.624;2023-07-02T12:28:15;101009.09;;;19.60;50.76
59043;BME280;44826;51.596;5.624;2023-07-02T12:30:40;101001.34;;;19.71;51.03
59043;BME280;44826;51.596;5.624;2023-07-02T12:33:06;101018.53;;;19.78;48.65
59043;BME280;44826;51.596;5.624;2023-07-02T12:35:31;101012.94;;;19.83;48.27
59043;BME280;44826;51.596;5.624;2023-07-02T12:37:56;101002.28;;;19.84;46.63
59043;BME280;44826;51.596;5.624;2023-07-02T12:40:22;101000.59;;;19.83;46.20
59043;BME280;44826;51.596;5.624;2023-07-02T12:42:48;101008.31;;;19.86;47.67
59043;BME280;44826;51.596;5.624;2023-07-02T12:45:14;101014.72;;;19.82;44.07
59043;BME280;44826;51.596;5.624;2023-07-02T12:47:41;101009.47;;;19.68;43.63
59043;BME280;44826;51.596;5.624;2023-07-02T12:50:07;101017.94;;;19.59;44.10